createdAt,value
2017-10-04T00:04:02.829Z,99.90
2017-10-04T00:09:06.779Z,99.50
2017-10-04T00:14:09.969Z,99.50
2017-10-04T00:19:13.186Z,99.10
2017-10-04T00:24:16.361Z,98.70
2017-10-04T00:29:20.302Z,99.90
2017-10-04T00:34:24.338Z,99.90
2017-10-04T00:39:27.546Z,99.90
2017-10-04T00:44:30.760Z,99.90
2017-10-04T00:49:33.966Z,99.90
2017-10-04T00:54:37.146Z,99.90
2017-10-04T00:59:41.201Z,99.90
2017-10-04T01:04:44.339Z,99.90
2017-10-04T01:09:47.501Z,99.90
2017-10-04T01:14:50.645Z,99.90
2017-10-04T01:19:53.796Z,99.90
2017-10-04T01:24:56.963Z,99.90
2017-10-04T01:30:00.223Z,99.90
2017-10-04T01:35:03.491Z,99.90
2017-10-04T01:40:06.694Z,99.90
2017-10-04T01:45:10.667Z,99.90
2017-10-04T01:50:13.881Z,99.90
2017-10-04T01:55:18.137Z,99.90
2017-10-04T02:00:21.408Z,99.90
2017-10-04T02:05:24.866Z,99.90
2017-10-04T02:10:28.049Z,99.90
2017-10-04T02:15:31.223Z,99.90
2017-10-04T02:20:34.367Z,99.90
2017-10-04T02:25:37.768Z,99.90
2017-10-04T02:30:40.942Z,99.90
2017-10-04T02:35:44.101Z,99.90
2017-10-04T02:40:47.334Z,99.90
2017-10-04T02:45:50.526Z,99.90
2017-10-04T02:50:53.739Z,99.90
2017-10-04T02:55:56.921Z,99.90
2017-10-04T03:01:00.134Z,99.90
2017-10-04T03:06:03.320Z,99.90
2017-10-04T03:11:06.529Z,99.90
2017-10-04T03:16:09.746Z,99.90
2017-10-04T03:21:12.973Z,99.90
2017-10-04T03:26:16.181Z,99.90
2017-10-04T03:31:19.421Z,99.90
2017-10-04T03:36:23.370Z,99.90
2017-10-04T03:41:26.552Z,99.90
2017-10-04T03:46:30.504Z,99.90
2017-10-04T03:51:33.685Z,99.90
2017-10-04T03:56:37.641Z,99.90
2017-10-04T04:01:40.852Z,99.90
2017-10-04T04:06:44.060Z,99.90
2017-10-04T04:11:47.350Z,99.90
2017-10-04T04:16:50.569Z,99.90
2017-10-04T04:21:53.771Z,99.90
2017-10-04T04:26:56.964Z,99.90
2017-10-04T04:32:00.261Z,99.90
2017-10-04T04:37:04.348Z,99.90
2017-10-04T04:42:07.523Z,99.90
2017-10-04T04:47:10.716Z,99.90
2017-10-04T04:52:13.900Z,99.90
2017-10-04T04:57:17.869Z,99.90
2017-10-04T05:02:21.233Z,99.90
2017-10-04T05:07:24.405Z,99.90
2017-10-04T05:12:27.631Z,99.90
2017-10-04T05:17:30.845Z,99.90
2017-10-04T05:22:34.805Z,99.90
2017-10-04T05:27:37.969Z,99.90
2017-10-04T05:32:41.249Z,99.90
2017-10-04T05:37:44.441Z,99.90
2017-10-04T05:42:47.975Z,99.90
2017-10-04T05:47:51.203Z,99.90
2017-10-04T05:52:54.395Z,99.90
2017-10-04T05:57:57.685Z,99.90
2017-10-04T06:03:00.890Z,99.90
2017-10-04T06:08:04.130Z,99.90
2017-10-04T06:13:07.501Z,99.90
2017-10-04T06:18:10.708Z,99.90
2017-10-04T06:23:13.882Z,99.90
2017-10-04T06:28:17.081Z,99.90
2017-10-04T06:33:21.053Z,99.30
2017-10-04T06:38:24.263Z,99.30
2017-10-04T06:43:27.472Z,99.00
2017-10-04T06:48:30.658Z,97.00
2017-10-04T06:53:33.841Z,98.30
2017-10-04T06:58:37.034Z,99.70
2017-10-04T07:03:40.228Z,99.90
2017-10-04T07:08:43.451Z,99.40
2017-10-04T07:13:47.435Z,98.30
2017-10-04T07:18:50.625Z,98.30
2017-10-04T07:23:53.830Z,97.80
2017-10-04T07:28:57.029Z,98.90
2017-10-04T07:34:00.219Z,93.20
2017-10-04T07:39:03.403Z,93.50
2017-10-04T07:44:07.496Z,87.10
2017-10-04T07:49:10.706Z,87.10
2017-10-04T07:54:13.897Z,90.40
2017-10-04T07:59:17.097Z,88.20
2017-10-04T08:04:20.305Z,90.30
2017-10-04T08:09:23.518Z,88.90
2017-10-04T08:14:26.673Z,88.90
2017-10-04T08:19:29.885Z,87.60
2017-10-04T08:24:33.849Z,86.90
2017-10-04T08:29:37.085Z,86.90
2017-10-04T08:34:40.281Z,88.70
2017-10-04T08:39:43.506Z,87.70
2017-10-04T08:44:47.465Z,86.70
2017-10-04T08:49:50.656Z,86.00
2017-10-04T08:54:53.917Z,82.30
2017-10-04T08:59:57.185Z,81.40
2017-10-04T09:05:18.241Z,82.00
2017-10-04T09:10:21.461Z,81.50
2017-10-04T09:15:24.642Z,78.50
2017-10-04T09:20:27.870Z,77.00
2017-10-04T09:25:31.059Z,76.40
2017-10-04T09:30:34.257Z,76.00
2017-10-04T09:35:37.452Z,77.80
2017-10-04T09:40:40.665Z,77.80
2017-10-04T09:45:43.845Z,77.00
2017-10-04T09:50:47.789Z,75.40
2017-10-04T09:55:50.999Z,75.30
2017-10-04T10:00:54.181Z,74.40
2017-10-04T10:05:58.133Z,77.10
2017-10-04T10:11:01.333Z,77.10
2017-10-04T10:16:04.519Z,76.50
2017-10-04T10:21:08.572Z,78.40
2017-10-04T10:26:11.772Z,78.40
2017-10-04T10:31:14.995Z,80.20
2017-10-04T10:36:18.173Z,78.40
2017-10-04T10:41:21.370Z,74.10
2017-10-04T10:46:25.332Z,72.90
2017-10-04T10:51:28.526Z,72.80
2017-10-04T10:56:31.733Z,72.80
2017-10-04T11:01:34.950Z,72.30
2017-10-04T11:06:38.161Z,69.20
2017-10-04T11:11:41.369Z,69.00
2017-10-04T11:16:44.777Z,68.50
2017-10-04T11:21:47.999Z,68.40
2017-10-04T11:26:51.206Z,69.10
2017-10-04T11:31:54.402Z,69.20
2017-10-04T11:36:57.736Z,68.30
2017-10-04T11:42:00.921Z,69.10
2017-10-04T11:47:04.257Z,68.80
2017-10-04T11:52:07.538Z,67.50
2017-10-04T11:57:10.757Z,68.60
2017-10-04T12:02:13.934Z,69.90
2017-10-04T12:07:17.151Z,70.60
2017-10-04T12:12:20.376Z,70.30
2017-10-04T12:17:23.569Z,68.40
2017-10-04T12:22:26.751Z,66.90
2017-10-04T12:27:29.969Z,67.70
2017-10-04T12:32:33.165Z,67.40
2017-10-04T12:37:36.442Z,66.50
2017-10-04T12:42:39.900Z,62.80
2017-10-04T12:47:43.105Z,64.20
2017-10-04T12:52:47.137Z,60.40
2017-10-04T12:57:50.366Z,60.40
2017-10-04T13:02:53.582Z,61.00
2017-10-04T13:07:56.810Z,60.20
2017-10-04T13:13:00.797Z,60.10
2017-10-04T13:18:04.019Z,60.00
2017-10-04T13:23:07.210Z,59.30
2017-10-04T13:28:10.542Z,59.10
2017-10-04T13:33:13.915Z,59.60
2017-10-04T13:38:17.207Z,59.30
2017-10-04T13:43:20.518Z,58.50
2017-10-04T13:48:23.747Z,58.80
2017-10-04T13:53:26.948Z,58.80
2017-10-04T13:58:30.160Z,59.40
2017-10-04T14:03:33.398Z,60.40
2017-10-04T14:08:37.378Z,62.70
2017-10-04T14:13:40.587Z,62.70
2017-10-04T14:18:43.937Z,62.20
2017-10-04T14:23:47.120Z,63.20
2017-10-04T14:28:50.450Z,62.50
2017-10-04T14:33:53.751Z,62.20
2017-10-04T14:38:57.100Z,62.00
2017-10-04T14:44:01.072Z,62.20
2017-10-04T14:49:04.295Z,62.10
2017-10-04T14:54:07.516Z,63.30
2017-10-04T14:59:10.818Z,63.40
2017-10-04T15:04:14.020Z,64.00
2017-10-04T15:09:17.331Z,62.50
2017-10-04T15:14:20.553Z,62.90
2017-10-04T15:19:23.755Z,63.40
2017-10-04T15:24:27.007Z,63.30
2017-10-04T15:29:30.375Z,62.90
2017-10-04T15:34:33.583Z,64.00
2017-10-04T15:39:36.767Z,64.50
2017-10-04T15:44:40.049Z,65.00
2017-10-04T15:49:43.249Z,64.80
2017-10-04T15:54:46.503Z,66.00
2017-10-04T15:59:49.782Z,68.20
2017-10-04T16:04:52.983Z,68.30
2017-10-04T16:09:56.181Z,69.00
2017-10-04T16:14:59.411Z,67.50
2017-10-04T16:20:02.640Z,68.40
2017-10-04T16:25:05.907Z,68.70
2017-10-04T16:30:09.114Z,69.40
2017-10-04T16:35:12.342Z,68.50
2017-10-04T16:40:15.747Z,68.70
2017-10-04T16:45:19.034Z,67.90
2017-10-04T16:50:22.274Z,68.40
2017-10-04T16:55:25.557Z,68.70
2017-10-04T17:00:28.846Z,69.70
2017-10-04T17:05:32.157Z,70.10
2017-10-04T17:10:35.386Z,70.80
2017-10-04T17:15:38.600Z,71.30
2017-10-04T17:20:41.798Z,72.00
2017-10-04T17:25:45.005Z,72.80
2017-10-04T17:30:48.229Z,71.80
2017-10-04T17:35:51.481Z,73.00
2017-10-04T17:40:56.293Z,74.20
2017-10-04T17:45:59.479Z,74.20
2017-10-04T17:51:02.682Z,74.50
2017-10-04T17:56:05.918Z,74.90
2017-10-04T18:01:09.161Z,75.30
2017-10-04T18:06:12.362Z,76.00
2017-10-04T18:11:16.599Z,76.80
2017-10-04T18:16:20.545Z,77.40
2017-10-04T18:21:23.774Z,77.40
2017-10-04T18:26:27.046Z,77.80
2017-10-04T18:31:30.376Z,77.40
2017-10-04T18:36:33.713Z,77.40
2017-10-04T18:41:36.995Z,77.10
2017-10-04T18:46:40.240Z,77.60
2017-10-04T18:51:43.595Z,77.10
2017-10-04T18:56:46.826Z,76.40
2017-10-04T19:01:50.214Z,76.70
2017-10-04T19:06:53.401Z,77.40
2017-10-04T19:11:56.644Z,77.40
2017-10-04T19:16:59.936Z,77.20
2017-10-04T19:22:03.199Z,77.70
2017-10-04T19:27:06.498Z,78.10
2017-10-04T19:32:09.704Z,78.00
2017-10-04T19:37:13.076Z,78.80
2017-10-04T19:42:16.328Z,78.70
2017-10-04T19:47:22.176Z,80.10
2017-10-04T19:52:25.391Z,79.40
2017-10-04T19:57:28.616Z,79.40
2017-10-04T20:02:31.863Z,79.10
2017-10-04T20:07:35.139Z,79.40
2017-10-04T20:12:38.309Z,79.40
2017-10-04T20:17:41.604Z,79.70
2017-10-04T20:22:44.822Z,80.20
2017-10-04T20:27:48.089Z,80.30
2017-10-04T20:32:51.304Z,80.00
2017-10-04T20:37:54.609Z,79.70
2017-10-04T20:42:57.851Z,80.10
2017-10-04T20:48:01.049Z,80.30
2017-10-04T20:53:04.262Z,80.40
2017-10-04T20:58:07.484Z,80.90
2017-10-04T21:03:10.692Z,81.20
2017-10-04T21:08:13.931Z,82.10
2017-10-04T21:13:17.137Z,81.70
2017-10-04T21:18:20.541Z,81.60
2017-10-04T21:23:24.528Z,82.30
2017-10-04T21:28:27.778Z,82.30
2017-10-04T21:33:31.058Z,81.60
2017-10-04T21:38:34.485Z,81.50
2017-10-04T21:43:37.701Z,81.30
2017-10-04T21:48:40.887Z,80.90
2017-10-04T21:53:44.081Z,81.40
2017-10-04T21:58:47.272Z,81.20
2017-10-04T22:03:50.477Z,81.00
2017-10-04T22:08:53.709Z,80.50
2017-10-04T22:13:56.922Z,80.80
2017-10-04T22:19:00.130Z,80.80
2017-10-04T22:24:03.355Z,81.30
2017-10-04T22:29:06.637Z,81.00
2017-10-04T22:34:09.822Z,82.10
2017-10-04T22:39:13.019Z,82.90
2017-10-04T22:44:16.217Z,83.20
2017-10-04T22:49:19.405Z,83.60
2017-10-04T22:54:23.369Z,84.10
2017-10-04T22:59:26.577Z,84.10
2017-10-04T23:04:29.782Z,84.20
2017-10-04T23:09:33.011Z,84.30
2017-10-04T23:14:36.202Z,84.10
2017-10-04T23:19:39.389Z,84.20
2017-10-04T23:24:42.593Z,83.50
2017-10-04T23:29:45.777Z,83.40
2017-10-04T23:34:49.011Z,83.50
2017-10-04T23:39:52.226Z,83.80
2017-10-04T23:44:55.426Z,84.50
2017-10-04T23:49:58.735Z,84.50
2017-10-04T23:55:01.955Z,84.50
